createdAt,value
2019-06-01T00:01:38.234Z,16.91
2019-06-01T00:04:07.557Z,16.86
2019-06-01T00:06:36.971Z,16.96
2019-06-01T00:09:08.217Z,16.82
2019-06-01T00:11:39.087Z,16.87
2019-06-01T00:14:09.049Z,16.85
2019-06-01T00:16:39.839Z,16.88
2019-06-01T00:19:09.397Z,16.67
2019-06-01T00:21:38.905Z,16.59
2019-06-01T00:24:08.397Z,16.63
2019-06-01T00:26:37.702Z,16.56
2019-06-01T00:29:07.305Z,16.52
2019-06-01T00:31:36.518Z,16.59
2019-06-01T00:34:05.928Z,16.85
2019-06-01T00:36:35.825Z,16.79
2019-06-01T00:39:07.286Z,16.71
2019-06-01T00:41:36.856Z,16.76
2019-06-01T00:44:06.377Z,16.68
2019-06-01T00:46:35.873Z,16.61
2019-06-01T00:49:05.598Z,16.38
2019-06-01T00:51:35.005Z,16.46
2019-06-01T00:54:04.604Z,16.58
2019-06-01T00:56:33.679Z,16.43
2019-06-01T00:59:03.081Z,16.42
2019-06-01T01:01:32.298Z,16.60
2019-06-01T01:04:01.497Z,16.41
2019-06-01T01:06:30.800Z,16.38
2019-06-01T01:09:00.599Z,16.33
2019-06-01T01:11:29.799Z,16.40
2019-06-01T01:13:59.296Z,16.30
2019-06-01T01:16:28.558Z,16.30
2019-06-01T01:18:57.790Z,16.20
2019-06-01T01:21:27.081Z,16.21
2019-06-01T01:23:56.662Z,16.30
2019-06-01T01:26:26.117Z,16.28
2019-06-01T01:28:55.302Z,16.34
2019-06-01T01:31:24.396Z,16.34
2019-06-01T01:33:53.597Z,16.40
2019-06-01T01:36:22.896Z,16.16
2019-06-01T01:38:52.430Z,15.99
2019-06-01T01:41:22.128Z,15.84
2019-06-01T01:43:52.788Z,15.87
2019-06-01T01:46:22.457Z,15.66
2019-06-01T01:48:52.040Z,15.76
2019-06-01T01:51:21.557Z,15.60
2019-06-01T01:53:50.858Z,15.56
2019-06-01T01:56:20.342Z,15.53
2019-06-01T01:58:50.324Z,15.49
2019-06-01T02:01:22.583Z,15.60
2019-06-01T02:03:51.776Z,15.73
2019-06-01T02:06:21.540Z,15.62
2019-06-01T02:08:51.041Z,15.53
2019-06-01T02:11:20.456Z,15.46
2019-06-01T02:13:49.608Z,15.34
2019-06-01T02:16:19.125Z,15.22
2019-06-01T02:18:48.558Z,15.25
2019-06-01T02:21:17.858Z,14.90
2019-06-01T02:23:47.251Z,14.43
2019-06-01T02:26:16.350Z,14.72
2019-06-01T02:28:45.757Z,14.73
2019-06-01T02:31:14.944Z,14.67
2019-06-01T02:33:44.355Z,14.48
2019-06-01T02:36:13.540Z,14.54
2019-06-01T02:38:42.735Z,14.56
2019-06-01T02:41:12.249Z,14.46
2019-06-01T02:43:41.481Z,14.49
2019-06-01T02:46:10.745Z,14.45
2019-06-01T02:48:40.043Z,14.66
2019-06-01T02:51:09.236Z,14.69
2019-06-01T02:53:38.269Z,14.50
2019-06-01T02:56:07.629Z,14.40
2019-06-01T02:58:36.824Z,14.18
2019-06-01T03:01:23.743Z,14.28
2019-06-01T03:03:55.294Z,14.38
2019-06-01T03:06:26.025Z,14.44
2019-06-01T03:08:57.747Z,14.68
2019-06-01T03:11:29.231Z,14.63
2019-06-01T03:14:02.447Z,14.63
2019-06-01T03:16:33.666Z,14.40
2019-06-01T03:19:03.774Z,14.31
2019-06-01T03:21:33.883Z,14.33
2019-06-01T03:24:08.729Z,14.30
2019-06-01T03:26:46.790Z,14.10
2019-06-01T03:29:18.891Z,14.12
2019-06-01T03:31:48.334Z,14.03
2019-06-01T03:34:17.603Z,14.13
2019-06-01T03:36:47.105Z,14.15
2019-06-01T03:39:16.304Z,13.93
2019-06-01T03:41:45.820Z,13.90
2019-06-01T03:44:15.004Z,14.00
2019-06-01T03:46:44.201Z,14.13
2019-06-01T03:49:13.400Z,14.10
2019-06-01T03:51:42.784Z,14.18
2019-06-01T03:54:13.228Z,14.40
2019-06-01T03:56:42.736Z,14.38
2019-06-01T03:59:12.233Z,14.43
2019-06-01T04:01:41.537Z,14.50
2019-06-01T04:04:11.275Z,14.55
2019-06-01T04:06:40.639Z,14.49
2019-06-01T04:09:10.089Z,14.54
2019-06-01T04:11:39.296Z,14.63
2019-06-01T04:14:09.852Z,14.78
2019-06-01T04:16:40.647Z,14.72
2019-06-01T04:19:10.108Z,14.88
2019-06-01T04:21:39.581Z,14.98
2019-06-01T04:24:10.189Z,15.07
2019-06-01T04:26:39.647Z,15.15
2019-06-01T04:29:10.266Z,15.39
2019-06-01T04:31:39.592Z,15.36
2019-06-01T04:34:08.828Z,15.43
2019-06-01T04:36:37.971Z,15.65
2019-06-01T04:39:09.464Z,15.69
2019-06-01T04:41:38.827Z,15.76
2019-06-01T04:44:08.232Z,15.98
2019-06-01T04:46:37.321Z,16.16
2019-06-01T04:49:06.631Z,16.33
2019-06-01T04:51:35.711Z,16.63
2019-06-01T04:54:04.949Z,16.83
2019-06-01T04:56:34.312Z,16.95
2019-06-01T04:59:04.805Z,17.00
2019-06-01T05:01:34.143Z,17.13
2019-06-01T05:04:03.191Z,17.26
2019-06-01T05:06:32.536Z,17.43
2019-06-01T05:09:01.836Z,17.54
2019-06-01T05:11:31.141Z,17.74
2019-06-01T05:14:00.569Z,17.86
2019-06-01T05:16:29.836Z,17.92
2019-06-01T05:18:58.930Z,18.07
2019-06-01T05:21:28.432Z,18.12
2019-06-01T05:23:57.609Z,18.19
2019-06-01T05:26:27.029Z,18.36
2019-06-01T05:28:56.228Z,18.49
2019-06-01T05:31:26.040Z,18.54
2019-06-01T05:33:55.235Z,18.64
2019-06-01T05:36:24.431Z,18.68
2019-06-01T05:38:53.621Z,18.79
2019-06-01T05:41:22.720Z,18.87
2019-06-01T05:43:51.821Z,18.98
2019-06-01T05:46:22.216Z,19.08
2019-06-01T05:48:51.645Z,18.99
2019-06-01T05:51:21.255Z,19.06
2019-06-01T05:53:50.347Z,19.19
2019-06-01T05:56:19.801Z,19.25
2019-06-01T05:58:49.146Z,19.37
2019-06-01T06:01:19.677Z,19.34
2019-06-01T06:03:49.081Z,19.47
2019-06-01T06:06:18.477Z,19.62
2019-06-01T06:08:47.681Z,19.75
2019-06-01T06:11:17.030Z,19.68
2019-06-01T06:13:46.482Z,19.77
2019-06-01T06:16:15.816Z,19.89
2019-06-01T06:18:45.092Z,19.96
2019-06-01T06:21:14.718Z,20.06
2019-06-01T06:23:44.091Z,20.21
2019-06-01T06:26:15.513Z,20.35
2019-06-01T06:28:44.334Z,20.42
2019-06-01T06:31:14.936Z,20.46
2019-06-01T06:33:55.872Z,20.57
2019-06-01T06:36:16.029Z,20.71
2019-06-01T06:38:45.315Z,20.70
2019-06-01T06:41:14.552Z,20.78
2019-06-01T06:43:43.809Z,20.86
2019-06-01T06:46:12.904Z,20.85
2019-06-01T06:48:42.104Z,20.99
2019-06-01T06:51:11.299Z,21.12
2019-06-01T06:53:41.349Z,21.17
2019-06-01T06:56:11.335Z,21.22
2019-06-01T06:58:43.395Z,21.28
2019-06-01T07:01:14.131Z,21.35
2019-06-01T07:03:43.735Z,21.46
2019-06-01T07:06:13.256Z,21.60
2019-06-01T07:08:44.284Z,21.69
2019-06-01T07:11:13.475Z,21.80
2019-06-01T07:13:42.793Z,21.85
2019-06-01T07:16:12.091Z,21.92
2019-06-01T07:18:41.175Z,21.97
2019-06-01T07:21:10.310Z,22.05
2019-06-01T07:23:39.886Z,22.15
2019-06-01T07:26:09.187Z,22.27
2019-06-01T07:28:38.265Z,22.32
2019-06-01T07:31:07.560Z,22.40
2019-06-01T07:33:36.868Z,22.51
2019-06-01T07:36:07.092Z,22.61
2019-06-01T07:38:36.486Z,22.74
2019-06-01T07:41:06.703Z,22.95
2019-06-01T07:43:36.106Z,23.01
2019-06-01T07:46:05.424Z,22.89
2019-06-01T07:48:34.570Z,22.95
2019-06-01T07:51:03.929Z,23.01
2019-06-01T07:53:33.306Z,23.16
2019-06-01T07:56:02.409Z,23.24
2019-06-01T07:58:32.834Z,23.38
2019-06-01T08:01:02.332Z,23.46
2019-06-01T08:03:34.785Z,23.59
2019-06-01T08:06:03.083Z,23.60
2019-06-01T08:08:32.436Z,23.83
2019-06-01T08:11:02.928Z,23.76
2019-06-01T08:13:35.376Z,24.03
2019-06-01T08:16:03.254Z,24.07
2019-06-01T08:18:32.756Z,24.22
2019-06-01T08:21:01.886Z,24.46
2019-06-01T08:23:32.180Z,24.52
2019-06-01T08:26:01.881Z,24.36
2019-06-01T08:28:31.280Z,24.52
2019-06-01T08:31:00.854Z,24.74
2019-06-01T08:33:33.158Z,24.89
2019-06-01T08:36:01.127Z,25.07
2019-06-01T08:38:31.571Z,25.24
2019-06-01T08:41:01.092Z,25.28
2019-06-01T08:43:31.771Z,25.46
2019-06-01T08:46:01.087Z,25.43
2019-06-01T08:48:30.234Z,25.36
2019-06-01T08:50:59.579Z,25.38
2019-06-01T08:53:29.979Z,25.60
2019-06-01T08:55:59.311Z,25.82
2019-06-01T08:58:28.509Z,25.85
2019-06-01T09:00:58.229Z,26.10
2019-06-01T09:03:27.807Z,26.40
2019-06-01T09:05:57.836Z,26.75
2019-06-01T09:08:27.177Z,27.02
2019-06-01T09:10:57.777Z,27.15
2019-06-01T09:13:27.229Z,27.36
2019-06-01T09:15:57.489Z,27.64
2019-06-01T09:18:27.563Z,27.70
2019-06-01T09:20:57.022Z,27.55
2019-06-01T09:23:27.522Z,27.52
2019-06-01T09:25:56.848Z,27.54
2019-06-01T09:28:27.753Z,27.70
2019-06-01T09:30:57.188Z,27.97
2019-06-01T09:33:26.295Z,28.19
2019-06-01T09:35:56.503Z,28.40
2019-06-01T09:38:27.535Z,28.23
2019-06-01T09:40:57.178Z,28.18
2019-06-01T09:43:26.760Z,28.21
2019-06-01T09:45:56.344Z,28.35
2019-06-01T09:48:26.973Z,28.59
2019-06-01T09:50:56.284Z,28.82
2019-06-01T09:53:25.595Z,29.34
2019-06-01T09:55:54.895Z,29.38
2019-06-01T09:58:24.216Z,29.52
2019-06-01T10:00:53.586Z,29.49
2019-06-01T10:03:22.727Z,29.78
2019-06-01T10:06:02.024Z,29.91
2019-06-01T10:08:23.234Z,28.89
2019-06-01T10:10:53.042Z,29.34
2019-06-01T10:13:22.134Z,29.76
2019-06-01T10:15:51.508Z,30.21
2019-06-01T10:18:20.844Z,30.61
2019-06-01T10:20:50.134Z,30.80
2019-06-01T10:23:19.535Z,30.96
2019-06-01T10:25:48.739Z,31.11
2019-06-01T10:28:17.931Z,31.36
2019-06-01T10:30:47.244Z,31.57
2019-06-01T10:33:16.425Z,31.57
2019-06-01T10:35:45.837Z,30.96
2019-06-01T10:38:14.919Z,31.19
2019-06-01T10:40:44.326Z,31.17
2019-06-01T10:43:13.531Z,31.57
2019-06-01T10:45:42.866Z,31.76
2019-06-01T10:48:12.019Z,32.29
2019-06-01T10:50:42.624Z,32.75
2019-06-01T10:53:11.950Z,32.91
2019-06-01T10:55:42.365Z,33.09
2019-06-01T10:58:11.774Z,32.65
2019-06-01T11:00:47.987Z,32.07
2019-06-01T11:03:12.342Z,31.28
2019-06-01T11:05:43.192Z,30.66
2019-06-01T11:08:12.355Z,30.25
2019-06-01T11:10:41.679Z,29.99
2019-06-01T11:13:12.184Z,29.79
2019-06-01T11:15:41.586Z,29.29
2019-06-01T11:18:10.781Z,28.43
2019-06-01T11:20:41.502Z,28.22
2019-06-01T11:23:11.119Z,28.04
2019-06-01T11:25:41.613Z,27.79
2019-06-01T11:28:11.254Z,27.82
2019-06-01T11:30:40.358Z,27.80
2019-06-01T11:33:09.454Z,27.79
2019-06-01T11:35:39.215Z,27.87
2019-06-01T11:38:08.450Z,27.96
2019-06-01T11:40:38.599Z,27.82
2019-06-01T11:43:07.976Z,27.69
2019-06-01T11:45:38.809Z,27.80
2019-06-01T11:48:08.111Z,27.87
2019-06-01T11:50:37.410Z,28.02
2019-06-01T11:53:06.705Z,28.05
2019-06-01T11:55:36.975Z,28.10
2019-06-01T11:58:07.064Z,28.17
2019-06-01T12:00:37.531Z,28.31
2019-06-01T12:03:06.787Z,28.28
2019-06-01T12:05:36.174Z,28.26
2019-06-01T12:08:05.789Z,28.33
2019-06-01T12:10:34.981Z,28.53
2019-06-01T12:13:04.385Z,28.56
2019-06-01T12:15:33.576Z,28.78
2019-06-01T12:18:02.671Z,29.01
2019-06-01T12:20:32.487Z,29.12
2019-06-01T12:23:01.680Z,29.25
2019-06-01T12:25:30.882Z,29.48
2019-06-01T12:28:00.175Z,29.67
2019-06-01T12:30:29.469Z,29.74
2019-06-01T12:32:58.774Z,29.68
2019-06-01T12:35:28.075Z,29.38
2019-06-01T12:38:05.928Z,29.28
2019-06-01T12:40:28.094Z,29.40
2019-06-01T12:42:57.400Z,29.46
2019-06-01T12:45:26.501Z,29.70
2019-06-01T12:47:58.594Z,29.95
2019-06-01T12:50:26.949Z,30.07
2019-06-01T12:52:56.248Z,30.20
2019-06-01T12:55:25.343Z,30.23
2019-06-01T12:57:54.484Z,30.49
2019-06-01T13:00:24.139Z,31.36
2019-06-01T13:03:03.654Z,31.36
2019-06-01T13:05:24.694Z,32.03
2019-06-01T13:08:01.692Z,32.77
2019-06-01T13:10:24.771Z,32.89
2019-06-01T13:12:54.123Z,32.61
2019-06-01T13:15:24.035Z,31.99
2019-06-01T13:17:53.330Z,31.99
2019-06-01T13:20:22.945Z,31.69
2019-06-01T13:22:52.287Z,31.69
2019-06-01T13:25:21.539Z,31.51
2019-06-01T13:27:50.761Z,31.09
2019-06-01T13:30:20.050Z,30.70
2019-06-01T13:32:50.812Z,30.48
2019-06-01T13:35:20.181Z,30.48
2019-06-01T13:37:50.783Z,30.17
2019-06-01T13:40:20.675Z,29.96
2019-06-01T13:42:51.241Z,29.86
2019-06-01T13:45:20.642Z,29.80
2019-06-01T13:47:50.029Z,29.75
2019-06-01T13:50:19.253Z,29.78
2019-06-01T13:52:48.447Z,29.66
2019-06-01T13:55:17.847Z,29.69
2019-06-01T13:57:48.301Z,29.83
2019-06-01T14:00:29.788Z,29.98
2019-06-01T14:02:53.665Z,30.08
2019-06-01T14:05:19.959Z,30.22
2019-06-01T14:07:49.574Z,30.34
2019-06-01T14:10:19.796Z,30.80
2019-06-01T14:12:49.356Z,31.17
2019-06-01T14:15:19.724Z,31.76
2019-06-01T14:17:50.270Z,32.08
2019-06-01T14:20:19.652Z,32.20
2019-06-01T14:22:49.823Z,32.00
2019-06-01T14:25:19.285Z,31.73
2019-06-01T14:27:48.575Z,31.40
2019-06-01T14:30:17.784Z,31.00
2019-06-01T14:32:48.802Z,30.59
2019-06-01T14:35:18.375Z,30.35
2019-06-01T14:37:48.678Z,30.17
2019-06-01T14:40:18.147Z,29.91
2019-06-01T14:42:48.977Z,29.86
2019-06-01T14:45:18.606Z,29.79
2019-06-01T14:47:47.800Z,29.75
2019-06-01T14:50:18.111Z,29.59
2019-06-01T14:52:47.628Z,29.50
2019-06-01T14:55:17.269Z,29.30
2019-06-01T14:57:48.353Z,29.43
2019-06-01T15:00:18.200Z,29.56
2019-06-01T15:02:48.224Z,29.75
2019-06-01T15:05:17.894Z,29.74
2019-06-01T15:07:48.149Z,29.84
2019-06-01T15:10:18.140Z,30.12
2019-06-01T15:12:52.638Z,30.59
2019-06-01T15:15:19.286Z,31.15
2019-06-01T15:17:49.303Z,31.65
2019-06-01T15:20:19.030Z,32.05
2019-06-01T15:22:48.319Z,32.29
2019-06-01T15:25:17.815Z,32.58
2019-06-01T15:27:46.946Z,32.70
2019-06-01T15:30:16.415Z,32.70
2019-06-01T15:32:45.614Z,32.80
2019-06-01T15:35:15.319Z,32.84
2019-06-01T15:37:44.466Z,32.83
2019-06-01T15:40:13.831Z,32.78
2019-06-01T15:42:43.017Z,32.51
2019-06-01T15:45:12.909Z,32.17
2019-06-01T15:47:42.230Z,31.84
2019-06-01T15:50:12.246Z,31.55
2019-06-01T15:52:41.380Z,30.98
2019-06-01T15:55:11.256Z,30.98
2019-06-01T15:57:40.656Z,30.71
2019-06-01T16:00:10.985Z,30.54
2019-06-01T16:02:40.281Z,30.34
2019-06-01T16:05:09.990Z,30.15
2019-06-01T16:07:39.265Z,29.86
2019-06-01T16:10:10.630Z,29.81
2019-06-01T16:12:40.034Z,29.76
2019-06-01T16:15:11.084Z,29.75
2019-06-01T16:17:40.171Z,29.64
2019-06-01T16:20:10.695Z,29.75
2019-06-01T16:22:39.895Z,30.03
2019-06-01T16:25:09.608Z,30.28
2019-06-01T16:27:38.806Z,30.50
2019-06-01T16:30:09.129Z,30.62
2019-06-01T16:32:39.606Z,30.40
2019-06-01T16:35:09.465Z,30.38
2019-06-01T16:37:38.568Z,30.23
2019-06-01T16:40:10.511Z,30.25
2019-06-01T16:42:39.418Z,30.13
2019-06-01T16:45:08.923Z,29.99
2019-06-01T16:47:38.324Z,29.88
2019-06-01T16:50:09.372Z,29.76
2019-06-01T16:52:38.713Z,29.49
2019-06-01T16:55:09.498Z,29.36
2019-06-01T16:57:38.898Z,29.20
2019-06-01T17:00:10.705Z,29.10
2019-06-01T17:02:39.955Z,29.00
2019-06-01T17:05:10.684Z,28.77
2019-06-01T17:07:39.886Z,28.60
2019-06-01T17:10:24.619Z,28.55
2019-06-01T17:12:43.463Z,28.52
2019-06-01T17:15:14.646Z,28.53
2019-06-01T17:17:43.931Z,28.55
2019-06-01T17:20:42.016Z,28.47
2019-06-01T17:23:26.168Z,28.36
2019-06-01T17:25:42.358Z,28.17
2019-06-01T17:28:11.967Z,28.12
2019-06-01T17:30:41.366Z,28.04
2019-06-01T17:33:10.459Z,27.99
2019-06-01T17:35:39.604Z,27.88
2019-06-01T17:38:09.278Z,27.61
2019-06-01T17:40:42.742Z,27.35
2019-06-01T17:43:09.813Z,27.32
2019-06-01T17:45:39.416Z,27.25
2019-06-01T17:48:21.597Z,27.20
2019-06-01T17:50:40.264Z,27.11
2019-06-01T17:53:09.359Z,27.05
2019-06-01T17:55:39.890Z,26.96
2019-06-01T17:58:10.264Z,26.91
2019-06-01T18:00:40.747Z,26.86
2019-06-01T18:03:10.311Z,26.85
2019-06-01T18:05:39.645Z,26.71
2019-06-01T18:08:10.201Z,26.65
2019-06-01T18:10:52.725Z,26.50
2019-06-01T18:13:10.728Z,26.47
2019-06-01T18:15:39.815Z,26.34
2019-06-01T18:18:10.381Z,26.23
2019-06-01T18:20:40.255Z,26.06
2019-06-01T18:23:11.430Z,26.05
2019-06-01T18:25:40.594Z,25.89
2019-06-01T18:28:17.760Z,25.49
2019-06-01T18:30:40.936Z,25.26
2019-06-01T18:33:11.177Z,24.93
2019-06-01T18:35:40.869Z,24.80
2019-06-01T18:38:12.794Z,24.56
2019-06-01T18:40:41.614Z,24.02
2019-06-01T18:43:31.294Z,23.98
2019-06-01T18:46:00.807Z,23.73
2019-06-01T18:48:30.096Z,23.75
2019-06-01T18:50:59.296Z,23.62
2019-06-01T18:53:28.699Z,23.28
2019-06-01T18:55:58.099Z,23.06
2019-06-01T18:58:27.599Z,22.93
2019-06-01T19:00:57.011Z,22.64
2019-06-01T19:03:26.099Z,22.20
2019-06-01T19:05:55.515Z,22.24
2019-06-01T19:08:24.761Z,22.00
2019-06-01T19:10:54.131Z,21.97
2019-06-01T19:13:23.614Z,21.95
2019-06-01T19:15:54.030Z,21.77
2019-06-01T19:18:23.126Z,21.82
2019-06-01T19:20:54.267Z,21.55
2019-06-01T19:23:23.779Z,21.40
2019-06-01T19:25:52.971Z,21.36
2019-06-01T19:28:22.271Z,21.27
2019-06-01T19:30:51.680Z,20.77
2019-06-01T19:33:20.872Z,20.81
2019-06-01T19:35:50.400Z,20.92
2019-06-01T19:38:21.519Z,20.68
2019-06-01T19:40:50.824Z,20.37
2019-06-01T19:43:20.220Z,20.34
2019-06-01T19:45:49.619Z,20.16
2019-06-01T19:48:19.182Z,19.97
2019-06-01T19:50:48.533Z,19.79
2019-06-01T19:53:18.921Z,19.84
2019-06-01T19:55:48.266Z,19.77
2019-06-01T19:58:19.073Z,19.58
2019-06-01T20:00:48.967Z,19.62
2019-06-01T20:03:21.810Z,19.48
2019-06-01T20:05:49.447Z,19.37
2019-06-01T20:08:18.746Z,19.04
2019-06-01T20:10:48.039Z,18.89
2019-06-01T20:13:17.369Z,18.84
2019-06-01T20:15:46.746Z,19.02
2019-06-01T20:18:17.154Z,18.89
2019-06-01T20:20:46.721Z,18.56
2019-06-01T20:23:17.276Z,18.75
2019-06-01T20:25:46.811Z,18.90
2019-06-01T20:28:17.425Z,18.68
2019-06-01T20:30:46.956Z,18.50
2019-06-01T20:33:16.140Z,18.34
2019-06-01T20:35:45.756Z,18.32
2019-06-01T20:38:16.438Z,18.26
2019-06-01T20:40:45.880Z,18.27
2019-06-01T20:43:15.138Z,18.25
2019-06-01T20:45:44.488Z,18.15
2019-06-01T20:48:14.983Z,18.10
2019-06-01T20:50:44.578Z,18.00
2019-06-01T20:53:14.959Z,18.13
2019-06-01T20:55:44.241Z,17.95
2019-06-01T20:58:13.799Z,17.90
2019-06-01T21:00:43.242Z,17.76
2019-06-01T21:03:13.628Z,17.66
2019-06-01T21:05:43.385Z,17.36
2019-06-01T21:08:13.903Z,17.31
2019-06-01T21:10:43.414Z,17.40
2019-06-01T21:13:14.146Z,17.32
2019-06-01T21:15:43.549Z,17.14
2019-06-01T21:18:14.174Z,17.24
2019-06-01T21:20:43.692Z,17.25
2019-06-01T21:23:14.330Z,17.25
2019-06-01T21:25:44.754Z,17.27
2019-06-01T21:28:16.160Z,17.22
2019-06-01T21:30:44.669Z,17.15
2019-06-01T21:33:14.893Z,17.03
2019-06-01T21:35:44.907Z,17.21
2019-06-01T21:38:15.228Z,17.29
2019-06-01T21:40:44.644Z,17.24
2019-06-01T21:43:25.109Z,17.00
2019-06-01T21:45:45.694Z,16.98
2019-06-01T21:48:15.590Z,16.87
2019-06-01T21:50:45.110Z,16.89
2019-06-01T21:53:15.842Z,16.79
2019-06-01T21:55:45.039Z,16.64
2019-06-01T21:58:14.362Z,16.40
2019-06-01T22:00:43.844Z,16.35
2019-06-01T22:03:13.273Z,16.08
2019-06-01T22:05:42.551Z,16.01
2019-06-01T22:08:11.950Z,15.86
2019-06-01T22:10:41.099Z,15.83
2019-06-01T22:13:18.492Z,15.97
2019-06-01T22:15:41.480Z,15.92
2019-06-01T22:18:10.936Z,15.82
2019-06-01T22:20:40.390Z,15.96
2019-06-01T22:23:11.911Z,16.00
2019-06-01T22:25:40.742Z,15.81
2019-06-01T22:28:10.078Z,15.78
2019-06-01T22:30:39.227Z,15.55
2019-06-01T22:33:08.528Z,15.60
2019-06-01T22:35:37.900Z,15.79
2019-06-01T22:38:07.330Z,15.85
2019-06-01T22:40:37.241Z,15.72
2019-06-01T22:43:06.541Z,15.40
2019-06-01T22:45:35.739Z,15.30
2019-06-01T22:48:05.139Z,15.15
2019-06-01T22:50:34.546Z,15.03
2019-06-01T22:53:03.640Z,15.03
2019-06-01T22:55:32.834Z,15.02
2019-06-01T22:58:02.208Z,15.02
2019-06-01T23:00:31.979Z,14.93
2019-06-01T23:03:01.454Z,15.00
2019-06-01T23:05:31.252Z,15.07
2019-06-01T23:08:00.669Z,15.18
2019-06-01T23:10:33.934Z,15.13
2019-06-01T23:13:00.848Z,15.05
2019-06-01T23:15:30.097Z,14.84
2019-06-01T23:17:59.394Z,14.71
2019-06-01T23:20:29.971Z,14.63
2019-06-01T23:22:59.431Z,14.79
2019-06-01T23:25:28.730Z,14.74
2019-06-01T23:27:58.231Z,14.71
2019-06-01T23:30:28.276Z,14.61
2019-06-01T23:32:57.444Z,14.69
2019-06-01T23:35:26.856Z,14.73
2019-06-01T23:37:56.149Z,14.80
2019-06-01T23:40:26.559Z,14.79
2019-06-01T23:42:55.914Z,14.76
2019-06-01T23:45:25.279Z,14.65
2019-06-01T23:47:54.469Z,14.69
2019-06-01T23:50:24.984Z,14.71
2019-06-01T23:52:54.608Z,14.76
2019-06-01T23:55:23.701Z,14.91
2019-06-01T23:57:53.214Z,14.90
